createdAt,value
2019-05-30T00:02:04.456Z,13.50
2019-05-30T00:04:37.282Z,13.40
2019-05-30T00:07:10.945Z,13.50
2019-05-30T00:09:42.487Z,13.50
2019-05-30T00:12:14.704Z,13.40
2019-05-30T00:14:45.889Z,13.40
2019-05-30T00:17:17.052Z,13.40
2019-05-30T00:19:48.237Z,13.40
2019-05-30T00:22:19.453Z,13.30
2019-05-30T00:24:50.658Z,13.30
2019-05-30T00:27:21.871Z,13.20
2019-05-30T00:29:53.146Z,13.10
2019-05-30T00:32:24.368Z,13.10
2019-05-30T00:34:55.606Z,13.00
2019-05-30T00:37:26.876Z,12.90
2019-05-30T00:39:58.067Z,12.70
2019-05-30T00:42:29.222Z,12.70
2019-05-30T00:45:00.433Z,12.60
2019-05-30T00:47:31.589Z,12.60
2019-05-30T00:50:02.820Z,12.50
2019-05-30T00:52:33.961Z,12.30
2019-05-30T00:55:07.145Z,12.20
2019-05-30T00:57:40.269Z,12.10
2019-05-30T01:00:11.442Z,12.00
2019-05-30T01:02:42.700Z,11.90
2019-05-30T01:05:13.885Z,11.80
2019-05-30T01:07:45.045Z,11.70
2019-05-30T01:10:16.246Z,11.60
2019-05-30T01:12:47.385Z,11.50
2019-05-30T01:15:18.753Z,11.40
2019-05-30T01:17:49.922Z,11.40
2019-05-30T01:20:21.115Z,11.20
2019-05-30T01:22:52.305Z,11.10
2019-05-30T01:25:23.535Z,11.00
2019-05-30T01:27:54.695Z,10.90
2019-05-30T01:30:25.868Z,10.80
2019-05-30T01:32:57.623Z,10.70
2019-05-30T01:35:28.896Z,10.60
2019-05-30T01:38:00.049Z,10.60
2019-05-30T01:40:31.375Z,10.50
2019-05-30T01:43:02.578Z,10.50
2019-05-30T01:45:33.740Z,10.50
2019-05-30T01:48:06.425Z,10.50
2019-05-30T01:50:37.705Z,10.40
2019-05-30T01:53:08.988Z,10.40
2019-05-30T01:55:41.130Z,10.20
2019-05-30T01:58:12.286Z,10.20
2019-05-30T02:00:43.507Z,10.10
2019-05-30T02:03:14.717Z,10.10
2019-05-30T02:05:45.881Z,10.00
2019-05-30T02:08:17.022Z,10.00
2019-05-30T02:10:48.143Z,9.90
2019-05-30T02:13:19.270Z,9.90
2019-05-30T02:15:50.482Z,9.90
2019-05-30T02:18:21.631Z,9.90
2019-05-30T02:20:52.717Z,9.80
2019-05-30T02:23:23.920Z,9.70
2019-05-30T02:25:55.035Z,9.70
2019-05-30T02:28:26.171Z,9.60
2019-05-30T02:30:57.286Z,9.60
2019-05-30T02:33:28.429Z,9.60
2019-05-30T02:36:01.284Z,9.60
2019-05-30T02:38:32.446Z,9.50
2019-05-30T02:41:05.436Z,9.50
2019-05-30T02:43:36.392Z,9.50
2019-05-30T02:46:08.488Z,9.50
2019-05-30T02:48:57.228Z,9.40
2019-05-30T02:51:13.171Z,9.40
2019-05-30T02:53:44.305Z,9.30
2019-05-30T02:56:15.428Z,9.30
2019-05-30T02:58:46.604Z,9.30
2019-05-30T03:01:17.775Z,9.30
2019-05-30T03:03:48.914Z,9.30
2019-05-30T03:06:20.030Z,9.30
2019-05-30T03:08:51.169Z,9.30
2019-05-30T03:11:22.302Z,9.20
2019-05-30T03:13:53.399Z,9.20
2019-05-30T03:16:24.539Z,9.20
2019-05-30T03:18:55.671Z,9.20
2019-05-30T03:21:26.803Z,9.20
2019-05-30T03:23:57.906Z,9.20
2019-05-30T03:26:29.100Z,9.10
2019-05-30T03:29:00.203Z,9.10
2019-05-30T03:31:31.399Z,9.10
2019-05-30T03:34:08.269Z,9.00
2019-05-30T03:36:35.358Z,9.00
2019-05-30T03:39:09.964Z,8.90
2019-05-30T03:41:40.572Z,9.00
2019-05-30T03:44:13.926Z,9.10
2019-05-30T03:46:50.262Z,9.10
2019-05-30T03:49:25.251Z,9.20
2019-05-30T03:51:57.011Z,9.20
2019-05-30T03:54:29.183Z,9.30
2019-05-30T03:57:13.995Z,9.30
2019-05-30T03:59:50.856Z,9.50
2019-05-30T04:02:57.004Z,9.60
2019-05-30T04:05:29.250Z,9.80
2019-05-30T04:08:00.400Z,10.40
2019-05-30T04:10:38.674Z,10.60
2019-05-30T04:13:52.234Z,10.70
2019-05-30T04:16:23.370Z,10.90
2019-05-30T04:18:54.508Z,10.90
2019-05-30T04:21:25.629Z,11.00
2019-05-30T04:23:56.770Z,11.20
2019-05-30T04:26:27.950Z,11.50
2019-05-30T04:28:59.066Z,11.60
2019-05-30T04:31:30.177Z,11.80
2019-05-30T04:34:01.348Z,11.80
2019-05-30T04:36:32.452Z,12.00
2019-05-30T04:39:05.199Z,12.20
2019-05-30T04:41:36.320Z,12.30
2019-05-30T04:44:09.597Z,12.50
2019-05-30T04:46:40.298Z,12.70
2019-05-30T04:49:12.300Z,12.90
2019-05-30T04:51:44.488Z,13.00
2019-05-30T04:54:16.863Z,13.30
2019-05-30T04:56:48.588Z,13.20
2019-05-30T04:59:20.331Z,13.30
2019-05-30T05:01:52.543Z,13.50
2019-05-30T05:04:23.680Z,13.60
2019-05-30T05:06:54.800Z,13.80
2019-05-30T05:09:25.950Z,14.00
2019-05-30T05:11:57.103Z,14.00
2019-05-30T05:14:28.258Z,14.10
2019-05-30T05:16:59.368Z,14.20
2019-05-30T05:19:30.562Z,14.40
2019-05-30T05:22:01.725Z,14.70
2019-05-30T05:24:32.868Z,15.00
2019-05-30T05:27:04.003Z,15.60
2019-05-30T05:29:35.207Z,16.50
2019-05-30T05:32:06.351Z,17.30
2019-05-30T05:34:37.512Z,18.10
2019-05-30T05:37:08.643Z,18.40
2019-05-30T05:39:39.806Z,18.50
2019-05-30T05:42:10.934Z,18.50
2019-05-30T05:44:42.084Z,19.10
2019-05-30T05:47:13.211Z,20.00
2019-05-30T05:49:44.362Z,20.50
2019-05-30T05:52:16.835Z,21.60
2019-05-30T05:54:48.123Z,22.60
2019-05-30T05:57:19.243Z,22.90
2019-05-30T05:59:50.386Z,22.60
2019-05-30T06:02:21.525Z,23.10
2019-05-30T06:04:52.726Z,23.40
2019-05-30T06:07:24.569Z,23.40
2019-05-30T06:09:55.844Z,23.00
2019-05-30T06:12:27.928Z,23.10
2019-05-30T06:14:59.158Z,23.30
2019-05-30T06:17:30.286Z,23.80
2019-05-30T06:20:01.603Z,24.30
2019-05-30T06:22:32.882Z,24.70
2019-05-30T06:25:04.975Z,25.10
2019-05-30T06:27:36.123Z,25.40
2019-05-30T06:30:07.560Z,25.50
2019-05-30T06:32:38.687Z,25.80
2019-05-30T06:35:09.963Z,26.20
2019-05-30T06:37:42.773Z,27.00
2019-05-30T06:40:14.284Z,27.40
2019-05-30T06:42:45.529Z,27.00
2019-05-30T06:45:16.701Z,26.30
2019-05-30T06:47:48.882Z,26.00
2019-05-30T06:50:20.677Z,25.40
2019-05-30T06:52:52.080Z,24.70
2019-05-30T06:55:23.345Z,24.60
2019-05-30T06:57:54.544Z,24.40
2019-05-30T07:00:26.456Z,24.50
2019-05-30T07:02:57.817Z,24.70
2019-05-30T07:05:30.587Z,24.50
2019-05-30T07:08:01.956Z,24.80
2019-05-30T07:10:33.219Z,25.20
2019-05-30T07:13:04.294Z,25.60
2019-05-30T07:15:35.439Z,25.80
2019-05-30T07:18:06.574Z,26.00
2019-05-30T07:20:37.789Z,26.20
2019-05-30T07:23:08.912Z,25.80
2019-05-30T07:25:40.073Z,25.60
2019-05-30T07:28:11.188Z,26.40
2019-05-30T07:30:42.350Z,26.90
2019-05-30T07:33:13.475Z,26.50
2019-05-30T07:35:44.628Z,26.20
2019-05-30T07:38:15.742Z,25.80
2019-05-30T07:40:46.909Z,25.50
2019-05-30T07:43:18.060Z,25.30
2019-05-30T07:45:57.663Z,25.10
2019-05-30T07:48:22.056Z,24.90
2019-05-30T07:50:53.212Z,25.10
2019-05-30T07:53:24.338Z,25.20
2019-05-30T07:55:55.497Z,24.80
2019-05-30T07:58:27.002Z,25.20
2019-05-30T08:00:58.233Z,25.30
2019-05-30T08:03:30.408Z,25.20
2019-05-30T08:06:01.681Z,24.90
2019-05-30T08:08:33.994Z,24.80
2019-05-30T08:11:09.303Z,24.80
2019-05-30T08:13:37.988Z,24.60
2019-05-30T08:16:09.138Z,24.10
2019-05-30T08:18:40.290Z,23.70
2019-05-30T08:21:11.491Z,23.80
2019-05-30T08:23:42.683Z,23.50
2019-05-30T08:26:13.866Z,23.40
2019-05-30T08:28:44.990Z,23.10
2019-05-30T08:31:16.533Z,23.10
2019-05-30T08:33:47.732Z,23.20
2019-05-30T08:36:18.977Z,23.10
2019-05-30T08:38:50.248Z,23.30
2019-05-30T08:41:21.356Z,23.40
2019-05-30T08:43:52.589Z,23.40
2019-05-30T08:46:23.773Z,23.90
2019-05-30T08:48:54.958Z,24.70
2019-05-30T08:51:26.101Z,25.20
2019-05-30T08:53:57.244Z,25.50
2019-05-30T08:56:28.696Z,26.10
2019-05-30T08:58:59.862Z,26.50
2019-05-30T09:01:31.017Z,26.70
2019-05-30T09:04:02.193Z,26.40
2019-05-30T09:06:33.451Z,26.40
2019-05-30T09:09:06.110Z,26.40
2019-05-30T09:11:38.848Z,26.80
2019-05-30T09:14:10.426Z,27.00
2019-05-30T09:16:41.574Z,27.20
2019-05-30T09:19:12.718Z,27.20
2019-05-30T09:21:45.404Z,27.00
2019-05-30T09:24:16.661Z,27.10
2019-05-30T09:26:50.326Z,27.20
2019-05-30T09:29:20.654Z,27.20
2019-05-30T09:31:51.818Z,27.20
2019-05-30T09:34:22.943Z,26.90
2019-05-30T09:36:54.108Z,26.90
2019-05-30T09:39:25.266Z,26.40
2019-05-30T09:41:56.448Z,26.30
2019-05-30T09:44:27.559Z,26.20
2019-05-30T09:46:58.739Z,26.00
2019-05-30T09:49:29.931Z,26.00
2019-05-30T09:52:01.076Z,26.00
2019-05-30T09:54:32.269Z,25.70
2019-05-30T09:57:03.468Z,25.40
2019-05-30T09:59:34.589Z,25.40
2019-05-30T10:02:05.736Z,25.40
2019-05-30T10:04:36.876Z,25.50
2019-05-30T10:07:08.034Z,25.80
2019-05-30T10:09:39.227Z,26.40
2019-05-30T10:12:10.373Z,26.80
2019-05-30T10:14:41.528Z,27.10
2019-05-30T10:17:12.656Z,27.30
2019-05-30T10:19:45.386Z,27.10
2019-05-30T10:22:16.683Z,26.80
2019-05-30T10:24:49.086Z,26.40
2019-05-30T10:27:21.350Z,26.60
2019-05-30T10:29:53.337Z,27.00
2019-05-30T10:32:24.589Z,26.80
2019-05-30T10:34:56.189Z,26.90
2019-05-30T10:37:27.512Z,26.90
2019-05-30T10:39:59.194Z,26.90
2019-05-30T10:42:30.383Z,27.30
2019-05-30T10:45:01.613Z,27.70
2019-05-30T10:47:33.042Z,28.40
2019-05-30T10:50:04.679Z,28.50
2019-05-30T10:52:35.944Z,28.60
2019-05-30T10:55:07.760Z,28.60
2019-05-30T10:57:38.907Z,28.40
2019-05-30T11:00:11.930Z,27.40
2019-05-30T11:02:43.235Z,25.60
2019-05-30T11:05:14.405Z,25.60
2019-05-30T11:08:05.848Z,25.80
2019-05-30T11:10:39.645Z,25.80
2019-05-30T11:13:13.782Z,25.80
2019-05-30T11:15:44.996Z,25.60
2019-05-30T11:18:16.142Z,24.60
2019-05-30T11:20:47.882Z,24.20
2019-05-30T11:23:19.116Z,24.70
2019-05-30T11:25:50.565Z,25.40
2019-05-30T11:28:22.805Z,26.30
2019-05-30T11:30:54.786Z,27.10
2019-05-30T11:33:26.101Z,27.40
2019-05-30T11:35:57.248Z,27.80
2019-05-30T11:38:28.423Z,28.00
2019-05-30T11:40:59.705Z,27.70
2019-05-30T11:43:30.913Z,27.40
2019-05-30T11:46:02.081Z,27.30
2019-05-30T11:48:33.228Z,27.20
2019-05-30T11:51:04.446Z,27.30
2019-05-30T11:53:35.650Z,27.20
2019-05-30T11:56:06.796Z,27.10
2019-05-30T11:58:38.041Z,27.20
2019-05-30T12:01:09.293Z,27.10
2019-05-30T12:03:40.461Z,27.10
2019-05-30T12:06:11.585Z,26.50
2019-05-30T12:08:42.756Z,26.40
2019-05-30T12:11:13.955Z,26.50
2019-05-30T12:13:45.124Z,26.70
2019-05-30T12:16:17.308Z,26.90
2019-05-30T12:18:48.449Z,26.90
2019-05-30T12:21:19.586Z,26.70
2019-05-30T12:23:51.924Z,26.10
2019-05-30T12:26:24.116Z,25.50
2019-05-30T12:28:56.035Z,25.40
2019-05-30T12:31:27.255Z,25.00
2019-05-30T12:33:58.494Z,24.60
2019-05-30T12:36:29.592Z,24.60
2019-05-30T12:39:00.751Z,24.80
2019-05-30T12:41:33.453Z,24.80
2019-05-30T12:44:04.625Z,24.70
2019-05-30T12:46:35.762Z,24.60
2019-05-30T12:49:06.902Z,24.90
2019-05-30T12:51:38.067Z,25.30
2019-05-30T12:54:09.237Z,25.20
2019-05-30T12:56:40.389Z,25.30
2019-05-30T12:59:11.541Z,25.70
2019-05-30T13:01:42.682Z,25.50
2019-05-30T13:04:13.829Z,25.60
2019-05-30T13:06:44.965Z,25.90
2019-05-30T13:09:16.108Z,25.50
2019-05-30T13:11:47.247Z,25.70
2019-05-30T13:14:18.403Z,25.70
2019-05-30T13:16:49.549Z,25.80
2019-05-30T13:19:20.688Z,25.80
2019-05-30T13:21:53.845Z,26.10
2019-05-30T13:24:24.655Z,26.00
2019-05-30T13:26:55.779Z,25.80
2019-05-30T13:29:28.610Z,26.00
2019-05-30T13:32:00.513Z,25.60
2019-05-30T13:34:31.730Z,25.40
2019-05-30T13:37:03.045Z,25.60
2019-05-30T13:39:34.228Z,25.70
2019-05-30T13:42:05.867Z,26.00
2019-05-30T13:44:37.131Z,26.30
2019-05-30T13:47:08.890Z,26.50
2019-05-30T13:49:40.114Z,26.50
2019-05-30T13:52:11.349Z,26.30
2019-05-30T13:54:42.544Z,25.90
2019-05-30T13:57:14.770Z,26.00
2019-05-30T13:59:45.994Z,26.30
2019-05-30T14:02:17.197Z,26.20
2019-05-30T14:04:51.185Z,26.00
2019-05-30T14:07:22.842Z,26.10
2019-05-30T14:09:54.005Z,26.20
2019-05-30T14:12:25.179Z,26.10
2019-05-30T14:14:56.342Z,25.60
2019-05-30T14:17:27.477Z,25.40
2019-05-30T14:19:58.669Z,25.40
2019-05-30T14:22:29.882Z,25.40
2019-05-30T14:25:01.359Z,25.30
2019-05-30T14:27:32.671Z,25.40
2019-05-30T14:30:04.662Z,25.70
2019-05-30T14:32:36.920Z,25.60
2019-05-30T14:35:08.581Z,24.70
2019-05-30T14:37:42.093Z,24.70
2019-05-30T14:40:13.396Z,24.90
2019-05-30T14:42:44.769Z,25.30
2019-05-30T14:45:16.906Z,24.80
2019-05-30T14:47:48.580Z,24.60
2019-05-30T14:50:19.776Z,25.10
2019-05-30T14:52:51.027Z,25.30
2019-05-30T14:55:22.183Z,25.40
2019-05-30T14:57:53.333Z,25.40
2019-05-30T15:00:24.517Z,24.90
2019-05-30T15:02:55.632Z,24.90
2019-05-30T15:05:26.781Z,25.10
2019-05-30T15:07:57.928Z,25.40
2019-05-30T15:10:29.097Z,24.90
2019-05-30T15:13:00.228Z,24.20
2019-05-30T15:15:31.777Z,24.10
2019-05-30T15:18:03.245Z,24.00
2019-05-30T15:20:34.596Z,24.00
2019-05-30T15:23:09.536Z,24.30
2019-05-30T15:25:41.856Z,24.40
2019-05-30T15:28:14.213Z,24.40
2019-05-30T15:30:48.361Z,24.50
2019-05-30T15:33:20.031Z,24.50
2019-05-30T15:35:51.243Z,24.40
2019-05-30T15:38:25.028Z,24.50
2019-05-30T15:40:57.183Z,24.40
2019-05-30T15:43:28.442Z,24.40
2019-05-30T15:46:00.016Z,24.50
2019-05-30T15:48:31.304Z,24.60
2019-05-30T15:51:02.635Z,24.60
2019-05-30T15:53:33.901Z,24.70
2019-05-30T15:56:05.060Z,24.70
2019-05-30T15:58:36.249Z,24.90
2019-05-30T16:01:07.534Z,24.80
2019-05-30T16:03:38.665Z,24.70
2019-05-30T16:06:10.479Z,24.70
2019-05-30T16:08:41.549Z,24.70
2019-05-30T16:11:12.803Z,24.50
2019-05-30T16:13:43.967Z,24.20
2019-05-30T16:16:15.709Z,24.10
2019-05-30T16:18:47.023Z,24.20
2019-05-30T16:21:18.677Z,24.40
2019-05-30T16:23:49.878Z,24.50
2019-05-30T16:26:22.000Z,24.60
2019-05-30T16:28:55.709Z,24.40
2019-05-30T16:31:26.856Z,24.20
2019-05-30T16:33:58.024Z,24.20
2019-05-30T16:36:29.146Z,24.20
2019-05-30T16:39:00.270Z,24.10
2019-05-30T16:41:32.207Z,24.20
2019-05-30T16:44:04.397Z,24.30
2019-05-30T16:46:35.580Z,24.10
2019-05-30T16:49:06.705Z,24.20
2019-05-30T16:51:37.858Z,24.20
2019-05-30T16:54:09.001Z,24.10
2019-05-30T16:56:40.141Z,23.80
2019-05-30T16:59:30.482Z,23.60
2019-05-30T17:02:01.674Z,23.40
2019-05-30T17:04:32.801Z,23.20
2019-05-30T17:07:03.943Z,23.00
2019-05-30T17:09:35.065Z,23.00
2019-05-30T17:12:06.233Z,23.00
2019-05-30T17:14:37.418Z,23.10
2019-05-30T17:17:08.562Z,23.00
2019-05-30T17:19:39.858Z,23.00
2019-05-30T17:22:11.018Z,23.00
2019-05-30T17:24:42.233Z,22.90
2019-05-30T17:27:13.422Z,22.60
2019-05-30T17:29:44.546Z,22.40
2019-05-30T17:32:15.698Z,22.20
2019-05-30T17:34:46.858Z,22.10
2019-05-30T17:37:18.147Z,22.10
2019-05-30T17:39:49.215Z,21.90
2019-05-30T17:42:20.847Z,21.60
2019-05-30T17:44:52.138Z,21.40
2019-05-30T17:47:25.469Z,21.30
2019-05-30T17:49:57.232Z,21.20
2019-05-30T17:52:28.446Z,21.10
2019-05-30T17:54:59.586Z,21.00
2019-05-30T17:57:30.769Z,20.90
2019-05-30T18:00:01.907Z,20.90
2019-05-30T18:02:33.236Z,20.90
2019-05-30T18:05:05.574Z,21.10
2019-05-30T18:07:36.916Z,21.20
2019-05-30T18:10:08.239Z,21.30
2019-05-30T18:12:39.465Z,21.30
2019-05-30T18:15:18.830Z,21.20
2019-05-30T18:17:52.149Z,21.10
2019-05-30T18:20:23.825Z,20.90
2019-05-30T18:22:54.991Z,20.90
2019-05-30T18:25:26.105Z,20.80
2019-05-30T18:27:57.265Z,20.70
2019-05-30T18:30:43.244Z,20.70
2019-05-30T18:33:14.453Z,20.70
2019-05-30T18:35:45.575Z,20.60
2019-05-30T18:38:16.722Z,20.60
2019-05-30T18:40:47.866Z,20.60
2019-05-30T18:43:19.038Z,20.60
2019-05-30T18:45:50.191Z,20.50
2019-05-30T18:48:21.375Z,20.30
2019-05-30T18:50:52.518Z,20.20
2019-05-30T18:53:24.249Z,20.10
2019-05-30T18:55:55.344Z,20.00
2019-05-30T18:58:26.828Z,20.00
2019-05-30T19:00:58.225Z,19.80
2019-05-30T19:03:30.614Z,19.70
2019-05-30T19:06:02.332Z,19.60
2019-05-30T19:08:34.152Z,19.50
2019-05-30T19:11:05.279Z,19.40
2019-05-30T19:13:37.342Z,19.30
2019-05-30T19:16:08.520Z,19.20
2019-05-30T19:18:39.673Z,19.10
2019-05-30T19:21:10.927Z,18.90
2019-05-30T19:23:42.121Z,18.80
2019-05-30T19:26:13.258Z,18.70
2019-05-30T19:28:44.398Z,18.60
2019-05-30T19:31:15.536Z,18.50
2019-05-30T19:33:46.702Z,18.50
2019-05-30T19:36:17.849Z,18.40
2019-05-30T19:38:48.987Z,18.40
2019-05-30T19:41:20.119Z,18.30
2019-05-30T19:43:51.258Z,18.20
2019-05-30T19:46:22.381Z,18.10
2019-05-30T19:48:53.558Z,18.10
2019-05-30T19:51:24.702Z,18.00
2019-05-30T19:53:55.846Z,18.00
2019-05-30T19:56:26.985Z,18.00
2019-05-30T19:58:58.136Z,17.90
2019-05-30T20:01:29.717Z,17.90
2019-05-30T20:04:00.906Z,17.90
2019-05-30T20:06:34.506Z,17.80
2019-05-30T20:09:08.913Z,17.80
2019-05-30T20:11:41.399Z,17.80
2019-05-30T20:14:13.146Z,17.80
2019-05-30T20:16:44.275Z,17.80
2019-05-30T20:19:15.438Z,17.80
2019-05-30T20:21:46.563Z,17.70
2019-05-30T20:24:17.729Z,17.70
2019-05-30T20:26:48.853Z,17.70
2019-05-30T20:29:20.049Z,17.70
2019-05-30T20:31:51.184Z,17.60
2019-05-30T20:34:22.333Z,17.60
2019-05-30T20:36:53.470Z,17.70
2019-05-30T20:39:24.610Z,17.70
2019-05-30T20:41:55.741Z,17.70
2019-05-30T20:44:26.954Z,17.60
2019-05-30T20:46:58.222Z,17.60
2019-05-30T20:49:29.651Z,17.60
2019-05-30T20:52:01.310Z,17.60
2019-05-30T20:54:32.701Z,17.60
2019-05-30T20:57:03.871Z,17.70
2019-05-30T20:59:35.020Z,17.70
2019-05-30T21:02:06.526Z,17.60
2019-05-30T21:04:39.163Z,17.60
2019-05-30T21:07:10.355Z,17.60
2019-05-30T21:09:42.102Z,17.60
2019-05-30T21:12:13.639Z,17.60
2019-05-30T21:14:45.833Z,17.50
2019-05-30T21:17:18.198Z,17.50
2019-05-30T21:19:49.480Z,17.50
2019-05-30T21:22:20.593Z,17.50
2019-05-30T21:24:51.762Z,17.60
2019-05-30T21:27:22.922Z,17.50
2019-05-30T21:29:54.073Z,17.50
2019-05-30T21:32:25.244Z,17.50
2019-05-30T21:34:57.390Z,17.50
2019-05-30T21:37:28.613Z,17.50
2019-05-30T21:39:59.780Z,17.40
2019-05-30T21:42:32.030Z,17.40
2019-05-30T21:45:03.223Z,17.40
2019-05-30T21:47:34.618Z,17.40
2019-05-30T21:50:06.256Z,17.50
2019-05-30T21:52:37.442Z,17.40
2019-05-30T21:55:08.669Z,17.40
2019-05-30T21:57:39.908Z,17.40
2019-05-30T22:00:11.778Z,17.40
2019-05-30T22:02:52.757Z,17.40
2019-05-30T22:05:23.994Z,17.40
2019-05-30T22:07:55.854Z,17.40
2019-05-30T22:10:27.025Z,17.50
2019-05-30T22:13:09.239Z,17.40
2019-05-30T22:15:31.282Z,17.50
2019-05-30T22:18:02.566Z,17.50
2019-05-30T22:20:34.126Z,17.40
2019-05-30T22:23:05.452Z,17.40
2019-05-30T22:25:36.933Z,17.40
2019-05-30T22:28:08.173Z,17.40
2019-05-30T22:30:39.537Z,17.40
2019-05-30T22:33:12.093Z,17.40
2019-05-30T22:35:44.510Z,17.40
2019-05-30T22:38:16.101Z,17.40
2019-05-30T22:40:47.898Z,17.40
2019-05-30T22:43:25.385Z,17.30
2019-05-30T22:45:52.484Z,17.40
2019-05-30T22:48:23.816Z,17.40
2019-05-30T22:50:55.051Z,17.40
2019-05-30T22:53:26.248Z,17.30
2019-05-30T22:55:57.556Z,17.30
2019-05-30T22:58:28.880Z,17.30
2019-05-30T23:01:00.155Z,17.30
2019-05-30T23:03:31.382Z,17.20
2019-05-30T23:06:02.580Z,17.20
2019-05-30T23:08:33.901Z,17.20
2019-05-30T23:11:05.145Z,17.20
2019-05-30T23:13:40.393Z,17.20
2019-05-30T23:16:09.340Z,17.20
2019-05-30T23:18:40.650Z,17.20
2019-05-30T23:21:11.894Z,17.10
2019-05-30T23:23:44.008Z,17.10
2019-05-30T23:26:15.389Z,17.10
2019-05-30T23:28:47.493Z,17.00
2019-05-30T23:31:18.779Z,17.00
2019-05-30T23:33:50.262Z,17.00
2019-05-30T23:36:21.493Z,17.00
2019-05-30T23:38:52.788Z,17.00
2019-05-30T23:41:23.864Z,17.00
2019-05-30T23:44:03.605Z,17.00
2019-05-30T23:46:27.850Z,16.90
2019-05-30T23:48:59.869Z,16.90
2019-05-30T23:51:31.122Z,16.90
2019-05-30T23:54:02.290Z,16.90
2019-05-30T23:56:33.441Z,16.90
2019-05-30T23:59:04.602Z,16.80
